avis per tempestes more information blitzortung!


avis per Pluja more information rain snow radar


Visita la nostra xarxa de llocs de meteo:

Template documentation
and downloads

And another site



Thunderstorms From: 18-09-2018 09:00 Until: 19-09-2018 20:59 warning for: Thunderstorms Level: Yellow info button
Rain From: 18-09-2018 09:00 Until: 19-09-2018 20:59 warning for: Rain Level: Yellow info button

Pagina Historial Weather Underground text

Diari Resum May 24, 2017 Unitats:  Mètric    Imperial   Tant
« Previous Dia
SegĂźent Dia »
Diari Setmana Mensual Anual Personalitzada
  Maxima: Minima: Media:
Temperatura: -17.8 °C -9.2 °C -3.3 °C
Punt de rosada: -17.8 °C -14.6 °C -12.3 °C
Humitat: Humidity % 26 % 38 %
Wind Speed: 0 km/h 0 km/h 13.7 km/h
RĂ fegues de vent: 0 km/h - -
Vent:- - SSW
Pression baro: 0 hPa 34361.1 hPa -
Precipitacions: 0 mm    
Historical Graphs
 
 
Dades de taula per May 24, 2017
Temps Temperatura Punt de rosada Pression baro Vent Wind Speed RĂ fegues de vent Humitat Rainfall Rate (Hourly)
-17.8 °C -17.8 °C 0 hPa Calm     Humidity % 0 mm
00:02 -7.2 °C -11.8 °C 34533.8 hPa SW 6 km/h 6 km/h 59 % 0 mm
00:05 -8.6 °C -11.6 °C 34533.8 hPa Calm     70 % 0 mm
00:07 -7.3 °C -11.7 °C 34496.6 hPa SW 6 km/h 6 km/h 60 % 0 mm
00:12 -7.3 °C -11.7 °C 34496.6 hPa WSW 6 km/h 6 km/h 60 % 0 mm
00:15 -8.6 °C -11.6 °C 34533.8 hPa Calm     70 % 0 mm
00:25 -8.5 °C -11.6 °C 34533.8 hPa Calm   2.6 km/h 70 % 0 mm
00:35 -8.6 °C -11.6 °C 34533.8 hPa Calm     70 % 0 mm
00:45 -8.5 °C -11.7 °C 34533.8 hPa North 2.6 km/h 5.1 km/h 69 % 0 mm
00:55 -8.6 °C -11.8 °C 34533.8 hPa Calm     69 % 0 mm
01:05 -8.7 °C -11.8 °C 34533.8 hPa Calm     69 % 0 mm
01:15 -8.8 °C -12 °C 34567.7 hPa Calm   5.1 km/h 69 % 0 mm
01:25 -9.1 °C -12.2 °C 34567.7 hPa SSW 2.6 km/h 2.6 km/h 69 % 0 mm
01:35 -9.1 °C -12.3 °C 34567.7 hPa SW 2.6 km/h 5.1 km/h 69 % 0 mm
01:45 -9.2 °C -12.4 °C 34567.7 hPa SW 5.1 km/h 7.7 km/h 69 % 0 mm
01:55 -9.2 °C -12.4 °C 34567.7 hPa SW 5.1 km/h 7.7 km/h 69 % 0 mm
02:05 -9.1 °C -12.3 °C 34567.7 hPa Calm   5.1 km/h 69 % 0 mm
02:15 -8.9 °C -12.1 °C 34567.7 hPa WSW 2.6 km/h 5.1 km/h 69 % 0 mm
02:25 -8.7 °C -11.8 °C 34567.7 hPa Calm   5.1 km/h 69 % 0 mm
02:35 -8.1 °C -11.4 °C 34567.7 hPa Calm     68 % 0 mm
02:45 -7.8 °C -11.3 °C 34567.7 hPa Calm     66 % 0 mm
02:55 -7.8 °C -11.6 °C 34601.5 hPa West 2.6 km/h 5.1 km/h 65 % 0 mm
03:05 -7.7 °C -11.6 °C 34601.5 hPa SW 2.6 km/h 5.1 km/h 64 % 0 mm
03:15 -7.5 °C -11.3 °C 34567.7 hPa SW 2.6 km/h 5.1 km/h 64 % 0 mm
03:25 -7.2 °C -11.3 °C 34601.5 hPa SW 5.1 km/h 5.1 km/h 62 % 0 mm
03:35 -7.1 °C -11.2 °C 34601.5 hPa SW 2.6 km/h 5.1 km/h 62 % 0 mm
03:45 -6.8 °C -11 °C 34567.7 hPa SW 2.6 km/h 5.1 km/h 62 % 0 mm
03:55 -6.7 °C -11.1 °C 34601.5 hPa SW 2.6 km/h 5.1 km/h 60 % 0 mm
04:05 -6.1 °C -10.7 °C 34601.5 hPa SSW 2.6 km/h 7.7 km/h 59 % 0 mm
04:15 -5.7 °C -10.5 °C 34601.5 hPa NE 2.6 km/h 5.1 km/h 58 % 0 mm
04:25 -5.4 °C -10.4 °C 34601.5 hPa Calm   10.3 km/h 57 % 0 mm
04:35 -5.2 °C -10.3 °C 34601.5 hPa Calm   5.1 km/h 56 % 0 mm
04:45 -4.9 °C -10.2 °C 34567.7 hPa ENE 5.1 km/h 7.7 km/h 55 % 0 mm
04:55 -4.7 °C -10.3 °C 34601.5 hPa East 2.6 km/h 7.7 km/h 53 % 0 mm
05:05 -4.6 °C -10.4 °C 34601.5 hPa ESE 2.6 km/h 5.1 km/h 52 % 0 mm
05:15 -4 °C -9.8 °C 34601.5 hPa East 2.6 km/h 5.1 km/h 52 % 0 mm
05:25 -3.9 °C -10.1 °C 34601.5 hPa ENE 5.1 km/h 7.7 km/h 50 % 0 mm
05:35 -3.6 °C -9.8 °C 34601.5 hPa East 2.6 km/h 7.7 km/h 50 % 0 mm
05:45 -3.3 °C -9.7 °C 34601.5 hPa East 2.6 km/h 5.1 km/h 49 % 0 mm
10:52 -3.3 °C -9.9 °C 34601.5 hPa ENE 9 km/h 9 km/h 48 % 0 mm
10:57 -3.1 °C -9.7 °C 34601.5 hPa SE 6.3 km/h 6.3 km/h 48 % 0 mm
11:02 -2.8 °C -9.5 °C 34601.5 hPa SW 6 km/h 6 km/h 48 % 0 mm
11:07 -2.7 °C -9.7 °C 34567.7 hPa South 9 km/h 9 km/h 46 % 0 mm
11:12 -2.3 °C -9.3 °C 34567.7 hPa WSW 9 km/h 9 km/h 46 % 0 mm
11:17 -2.1 °C -9.3 °C 34567.7 hPa ESE 6 km/h 6 km/h 45 % 0 mm
11:22 -2 °C -9.5 °C 34533.8 hPa ESE 6 km/h 6 km/h 44 % 0 mm
11:27 -2.2 °C -9.6 °C 34533.8 hPa West 6 km/h 6 km/h 44 % 0 mm
11:32 -2.3 °C -9.9 °C 34533.8 hPa WSW 11.9 km/h 11.9 km/h 43 % 0 mm
11:37 -2.1 °C -9.9 °C 34533.8 hPa ENE 6 km/h 6 km/h 42 % 0 mm
11:42 -2.1 °C -9.9 °C 34533.8 hPa SW 9 km/h 9 km/h 42 % 0 mm
11:47 -1.6 °C -9.7 °C 34533.8 hPa SSW 9 km/h 9 km/h 41 % 0 mm
11:52 -1.4 °C -10.2 °C 34496.6 hPa NE 15 km/h 15 km/h 38 % 0 mm
11:57 -1.8 °C -10.3 °C 34496.6 hPa South 6.3 km/h 6.3 km/h 39 % 0 mm
12:02 -1.4 °C -10.2 °C 34496.6 hPa ENE 6 km/h   38 % 0 mm
12:07 -1.4 °C -10.2 °C 34496.6 hPa West 6 km/h 6 km/h 38 % 0 mm
12:12 -1.4 °C -10.7 °C 34496.6 hPa ENE 9 km/h 9 km/h 36 % 0 mm
12:17 -1.2 °C -9.9 °C 34496.6 hPa ESE 6 km/h 6 km/h 38 % 0 mm
12:22 -1.1 °C -9.9 °C 34496.6 hPa West 11.9 km/h 11.9 km/h 38 % 0 mm
12:27 -1.1 °C -10.1 °C 34496.6 hPa WSW 15 km/h 15 km/h 37 % 0 mm
12:32 -1 °C -10.3 °C 34496.6 hPa SSW 9 km/h 9 km/h 36 % 0 mm
12:37 -0.5 °C -9.8 °C 34462.7 hPa SW 11.9 km/h 11.9 km/h 36 % 0 mm
12:42 -0.5 °C -9.8 °C 34462.7 hPa SW 6.8 km/h 6.8 km/h 36 % 0 mm
12:47 -0.3 °C -9.9 °C 34462.7 hPa SW 11.9 km/h 11.9 km/h 35 % 0 mm
12:52 -0.6 °C -10.4 °C 34462.7 hPa West 11.9 km/h 11.9 km/h 34 % 0 mm
12:57 -0.3 °C -10.2 °C 34462.7 hPa South 9 km/h 9 km/h 34 % 0 mm
13:02 -0.4 °C -10.5 °C 34462.7 hPa South 11.9 km/h 11.9 km/h 33 % 0 mm
13:07 -0.2 °C -10.3 °C 34462.7 hPa NE 6 km/h 6 km/h 33 % 0 mm
13:12 -0.6 °C -10.7 °C 34462.7 hPa SSE 8.5 km/h 8.5 km/h 33 % 0 mm
13:17 -0.6 °C -10.9 °C 34462.7 hPa SSE 9 km/h 9 km/h 32 % 0 mm
13:22 -0.3 °C -10.4 °C 34462.7 hPa WSW 11.9 km/h 11.9 km/h 33 % 0 mm
13:27 -0.4 °C -10.8 °C 34462.7 hPa West 17.9 km/h 17.9 km/h 32 % 0 mm
13:32 -0.9 °C -11.2 °C 34462.7 hPa ESE 15 km/h 15 km/h 32 % 0 mm
13:37 -0.9 °C -11.2 °C 34462.7 hPa NE 7.6 km/h 7.6 km/h 32 % 0 mm
13:38 -0.9 °C -11.2 °C 34462.7 hPa ENE 6.3 km/h 6.3 km/h 32 % 0 mm
13:43 -0.6 °C -10.9 °C 34462.7 hPa SW 9 km/h 9 km/h 32 % 0 mm
13:48 -0.5 °C -11.1 °C 34462.7 hPa SSE 6 km/h 6 km/h 31 % 0 mm
13:53 -0.4 °C -10.8 °C 34462.7 hPa SSE 9 km/h 9 km/h 32 % 0 mm
13:58 -0.3 °C -10.9 °C 34462.7 hPa SSW 11.9 km/h 11.9 km/h 31 % 0 mm
14:03 -0.2 °C -11.1 °C 34462.7 hPa SSE 6 km/h 6 km/h 30 % 0 mm
14:08 -0.4 °C -11.3 °C 34462.7 hPa SSW 11.9 km/h 11.9 km/h 30 % 0 mm
14:13 -0.2 °C -10.9 °C 34462.7 hPa SW 15 km/h 15 km/h 31 % 0 mm
14:18 -0.1 °C -10.8 °C 34462.7 hPa North 11.9 km/h 11.9 km/h 31 % 0 mm
14:23 0.2 °C -10.8 °C 34462.7 hPa West 9.8 km/h 9.8 km/h 30 % 0 mm
14:28 0 °C -10.9 °C 34462.7 hPa West 26.9 km/h 26.9 km/h 30 % 0 mm
14:33 0 °C -11.3 °C 34462.7 hPa SSW 23.8 km/h 23.8 km/h 29 % 0 mm
14:38 0 °C -11.3 °C 34496.6 hPa South 27.2 km/h 27.2 km/h 29 % 0 mm
14:43 0.1 °C -11.2 °C 34496.6 hPa South 20.9 km/h 20.9 km/h 29 % 0 mm
14:48 -0.1 °C -11.3 °C 34496.6 hPa SW 15 km/h 15 km/h 29 % 0 mm
14:53 -0.4 °C -11.9 °C 34462.7 hPa SW 29.8 km/h 29.8 km/h 28 % 0 mm
14:58 -0.4 °C -11.9 °C 34462.7 hPa SSW 23.8 km/h 23.8 km/h 28 % 0 mm
15:03 -0.3 °C -11.8 °C 34462.7 hPa WSW 20.9 km/h 20.9 km/h 28 % 0 mm
15:08 -0.4 °C -11.9 °C 34462.7 hPa SSW 15 km/h 15 km/h 28 % 0 mm
15:13 -0.8 °C -12.6 °C 34462.7 hPa South 31.4 km/h 31.4 km/h 27 % 0 mm
15:18 -0.8 °C -12.6 °C 34462.7 hPa SW 32.8 km/h 32.8 km/h 27 % 0 mm
15:23 -0.8 °C -12.6 °C 34428.8 hPa SW 20.9 km/h 20.9 km/h 27 % 0 mm
15:28 -1.1 °C -12.7 °C 34428.8 hPa SW 38.8 km/h 38.8 km/h 27 % 0 mm
15:33 -0.9 °C -12.7 °C 34428.8 hPa South 26.9 km/h 26.9 km/h 27 % 0 mm
15:38 -1.1 °C -13.1 °C 34462.7 hPa WSW 32.8 km/h 32.8 km/h 26 % 0 mm
15:43 -1.1 °C -12.8 °C 34462.7 hPa South 32.8 km/h 32.8 km/h 27 % 0 mm
15:48 -1.1 °C -12.7 °C 34462.7 hPa SW 32.8 km/h 32.8 km/h 27 % 0 mm
15:53 -1 °C -12.7 °C 34428.8 hPa SSW 26.9 km/h 26.9 km/h 27 % 0 mm
15:58 -0.8 °C -12.6 °C 34428.8 hPa SSW 9.3 km/h 9.3 km/h 27 % 0 mm
16:03 -0.8 °C -12.6 °C 34428.8 hPa SW 20.9 km/h 20.9 km/h 27 % 0 mm
16:08 -0.9 °C -12.7 °C 34428.8 hPa SW 32.8 km/h 32.8 km/h 27 % 0 mm
16:13 -0.9 °C -12.7 °C 34428.8 hPa West 20.9 km/h 20.9 km/h 27 % 0 mm
16:18 -0.7 °C -12.4 °C 34428.8 hPa WSW 27.2 km/h 27.2 km/h 27 % 0 mm
16:23 -0.6 °C -12.4 °C 34395 hPa South 16.1 km/h 16.1 km/h 27 % 0 mm
16:28 -0.7 °C -12.4 °C 34395 hPa WSW 20.9 km/h 20.9 km/h 27 % 0 mm
16:33 -0.6 °C -12.3 °C 34395 hPa SW 11.9 km/h 11.9 km/h 27 % 0 mm
16:38 -0.7 °C -12.4 °C 34395 hPa SSW 20.9 km/h 20.9 km/h 27 % 0 mm
16:43 -0.7 °C -12.4 °C 34395 hPa SSW 27.7 km/h 27.7 km/h 27 % 0 mm
16:48 -0.8 °C -12.9 °C 34395 hPa South 26.9 km/h 26.9 km/h 26 % 0 mm
16:53 -0.7 °C -12.4 °C 34395 hPa WSW 15 km/h 15 km/h 27 % 0 mm
16:58 -0.9 °C -12.9 °C 34395 hPa SW 23.8 km/h 23.8 km/h 26 % 0 mm
17:03 -0.9 °C -12.9 °C 34395 hPa SSW 23.8 km/h 23.8 km/h 26 % 0 mm
17:08 -0.8 °C -12.9 °C 34395 hPa SW 24.3 km/h 24.3 km/h 26 % 0 mm
17:13 -0.9 °C -12.9 °C 34395 hPa SSW 23.8 km/h 23.8 km/h 26 % 0 mm
17:18 -0.9 °C -12.9 °C 34395 hPa SSE 20.9 km/h 20.9 km/h 26 % 0 mm
17:23 -0.8 °C -12.8 °C 34361.1 hPa WSW 15 km/h 15 km/h 26 % 0 mm
17:28 -1 °C -13 °C 34361.1 hPa WSW 26.9 km/h 26.9 km/h 26 % 0 mm
17:33 -1.2 °C -12.8 °C 34361.1 hPa ESE 20.3 km/h 20.3 km/h 27 % 0 mm
17:39 -1.1 °C -13.1 °C 34395 hPa SW 26.9 km/h 26.9 km/h 26 % 0 mm
17:44 -1.3 °C -13.2 °C 34395 hPa SSW 29.8 km/h 29.8 km/h 26 % 0 mm
17:49 -1.3 °C -13.3 °C 34395 hPa SW 20.9 km/h 20.9 km/h 26 % 0 mm
17:54 -1.4 °C -13 °C 34395 hPa WSW 15 km/h 15 km/h 27 % 0 mm
17:59 -1.4 °C -13 °C 34395 hPa SW 26.9 km/h 26.9 km/h 27 % 0 mm
18:00 -1.3 °C -13 °C 34395 hPa SSW 17.9 km/h 17.9 km/h 27 % 0 mm
18:05 -1.4 °C -13.1 °C 34395 hPa SE 23.8 km/h 23.8 km/h 27 % 0 mm
18:10 -1.6 °C -13.2 °C 34395 hPa West 23.8 km/h 23.8 km/h 27 % 0 mm
18:15 -1.7 °C -13.3 °C 34395 hPa SSW 26.9 km/h 26.9 km/h 27 % 0 mm
18:20 -1.7 °C -13 °C 34395 hPa WSW 35.7 km/h 35.7 km/h 28 % 0 mm
18:25 -2 °C -13.3 °C 34395 hPa WSW 17.9 km/h 17.9 km/h 28 % 0 mm
18:30 -2 °C -13.3 °C 34395 hPa South 15 km/h 15 km/h 28 % 0 mm
18:35 -2.1 °C -13.3 °C 34395 hPa SW 25.1 km/h 25.1 km/h 28 % 0 mm
18:40 -2.1 °C -13.1 °C 34395 hPa SW 17.9 km/h 17.9 km/h 29 % 0 mm
18:45 -2.3 °C -13.6 °C 34395 hPa WSW 23.8 km/h 23.8 km/h 28 % 0 mm
18:50 -2.6 °C -13.7 °C 34395 hPa SW 35.7 km/h 35.7 km/h 28 % 0 mm
18:55 -2.8 °C -13.9 °C 34395 hPa South 32.8 km/h 32.8 km/h 28 % 0 mm
19:00 -2.7 °C -13.6 °C 34395 hPa SW 23.3 km/h 23.3 km/h 29 % 0 mm
19:05 -2.8 °C -13.7 °C 34395 hPa SSW 32.8 km/h 32.8 km/h 29 % 0 mm
19:10 -2.9 °C -14.1 °C 34395 hPa SSW 23.8 km/h 23.8 km/h 28 % 0 mm
19:15 -2.9 °C -13.8 °C 34395 hPa WSW 32.8 km/h 32.8 km/h 29 % 0 mm
19:20 -2.9 °C -13.8 °C 34395 hPa SW 20.9 km/h 20.9 km/h 29 % 0 mm
19:25 -3.1 °C -13.9 °C 34395 hPa WSW 26.9 km/h 26.9 km/h 29 % 0 mm
19:30 -3.1 °C -13.9 °C 34395 hPa SW 29.8 km/h 29.8 km/h 29 % 0 mm
19:35 -3.2 °C -14 °C 34395 hPa SW 22 km/h 22 km/h 29 % 0 mm
19:40 -3.2 °C -14 °C 34395 hPa South 23.8 km/h 23.8 km/h 29 % 0 mm
19:45 -3.2 °C -14 °C 34395 hPa SW 29.8 km/h 29.8 km/h 29 % 0 mm
19:50 -3.3 °C -14.1 °C 34395 hPa SW 20.9 km/h 20.9 km/h 29 % 0 mm
19:55 -3.3 °C -14.1 °C 34428.8 hPa WSW 20.9 km/h 20.9 km/h 29 % 0 mm
20:00 -3.4 °C -14.2 °C 34428.8 hPa SSW 26.9 km/h 26.9 km/h 29 % 0 mm
20:05 -3.4 °C -14.2 °C 34428.8 hPa SW 20.9 km/h 20.9 km/h 29 % 0 mm
20:10 -3.4 °C -13.9 °C 34395 hPa South 17.9 km/h 17.9 km/h 30 % 0 mm
20:15 -3.5 °C -14 °C 34395 hPa SW 23.8 km/h 23.8 km/h 30 % 0 mm
20:20 -3.6 °C -14.1 °C 34395 hPa SSW 17.9 km/h 17.9 km/h 30 % 0 mm
20:25 -3.6 °C -14.1 °C 34395 hPa SW 15 km/h 15 km/h 30 % 0 mm
20:30 -3.7 °C -14.2 °C 34395 hPa SSW 23.8 km/h 23.8 km/h 30 % 0 mm
20:35 -3.8 °C -14.2 °C 34395 hPa SW 17.9 km/h 17.9 km/h 30 % 0 mm
20:40 -3.8 °C -14.3 °C 34395 hPa SW 14 km/h 14 km/h 30 % 0 mm
20:45 -3.9 °C -14.3 °C 34395 hPa SSW 17.9 km/h 17.9 km/h 30 % 0 mm
20:50 -4 °C -14.2 °C 34395 hPa WSW 15 km/h 15 km/h 31 % 0 mm
20:55 -4.1 °C -14.2 °C 34395 hPa SSW 15.3 km/h 15.3 km/h 31 % 0 mm
21:00 -4.1 °C -14.3 °C 34395 hPa SW 15 km/h 15 km/h 31 % 0 mm
21:05 -4.2 °C -14.3 °C 34395 hPa SSW 11.9 km/h 11.9 km/h 31 % 0 mm
21:10 -4.3 °C -14.1 °C 34395 hPa SW 14 km/h 14 km/h 32 % 0 mm
21:15 -4.3 °C -14.2 °C 34395 hPa WSW 20.9 km/h 20.9 km/h 32 % 0 mm
21:20 -4.4 °C -14.2 °C 34395 hPa SW 20.9 km/h 20.9 km/h 32 % 0 mm
21:25 -4.5 °C -14.3 °C 34395 hPa SSW 22 km/h 22 km/h 32 % 0 mm
21:30 -4.6 °C -14.4 °C 34395 hPa SSW 15 km/h 15 km/h 32 % 0 mm
21:35 -4.6 °C -14.4 °C 34395 hPa SW 15 km/h 15 km/h 32 % 0 mm
21:40 -4.7 °C -14.6 °C 34395 hPa SW 11.9 km/h 11.9 km/h 32 % 0 mm
21:45 -4.8 °C -14.3 °C 34395 hPa SW 11.9 km/h 11.9 km/h 33 % 0 mm
21:50 -4.8 °C -14.4 °C 34395 hPa WSW 9 km/h 9 km/h 33 % 0 mm
21:55 -4.9 °C -14.5 °C 34395 hPa SW 9 km/h 9 km/h 33 % 0 mm
22:00 -5 °C -14.6 °C 34395 hPa SW 6 km/h 6 km/h 33 % 0 mm
22:05 -5.1 °C -14.3 °C 34395 hPa West 9 km/h 9 km/h 34 % 0 mm
22:10 -5.1 °C -14.1 °C 34395 hPa WSW 3.1 km/h 3.1 km/h 35 % 0 mm
22:15 -5.2 °C -14.2 °C 34395 hPa NW 6 km/h 6 km/h 35 % 0 mm
22:20 -5.2 °C -14.2 °C 34395 hPa WSW 6 km/h 6 km/h 35 % 0 mm
22:25 -5.2 °C -14 °C 34395 hPa WSW 3.1 km/h 3.1 km/h 36 % 0 mm
22:30 -5.3 °C -14.1 °C 34395 hPa WSW 6.8 km/h 6.8 km/h 36 % 0 mm
22:35 -5.3 °C -14.1 °C 34395 hPa West 6.3 km/h 6.3 km/h 36 % 0 mm
22:40 -5.4 °C -14.2 °C 34428.8 hPa West 6 km/h 6 km/h 36 % 0 mm
22:45 -5.4 °C -14.2 °C 34428.8 hPa West 9 km/h 9 km/h 36 % 0 mm
22:50 -5.4 °C -14.2 °C 34428.8 hPa West 9 km/h 9 km/h 36 % 0 mm
22:55 -5.5 °C -14.3 °C 34428.8 hPa WSW 8 km/h 8 km/h 36 % 0 mm
23:00 -5.6 °C -14.1 °C 34428.8 hPa WSW 6 km/h 6 km/h 37 % 0 mm
23:05 -5.6 °C -14.1 °C 34428.8 hPa West 11.9 km/h 11.9 km/h 37 % 0 mm
23:10 -5.6 °C -14.1 °C 34428.8 hPa WSW 6.3 km/h 6.3 km/h 37 % 0 mm
23:15 -5.7 °C -14.2 °C 34428.8 hPa SW 7.6 km/h 7.6 km/h 37 % 0 mm
23:20 -5.7 °C -14.2 °C 34428.8 hPa SW 6.8 km/h 6.8 km/h 37 % 0 mm
23:25 -5.8 °C -14.1 °C 34395 hPa SW 6 km/h 6 km/h 38 % 0 mm
23:30 -5.8 °C -14.1 °C 34395 hPa WSW 6.8 km/h 6.8 km/h 38 % 0 mm
23:35 -5.8 °C -14.1 °C 34395 hPa SW 6 km/h 6 km/h 38 % 0 mm
23:40 -5.9 °C -14.2 °C 34395 hPa West 6 km/h 6 km/h 38 % 0 mm
23:45 -5.9 °C -13.9 °C 34395 hPa West 6 km/h 6 km/h 39 % 0 mm
23:55 -6 °C -14.1 °C 34428.8 hPa WSW 6 km/h 6 km/h 39 % 0 mm
Meteo Sesrovires
Elogis d' Weather Underground - 1.5 mb

Guio original per  Jim McMurry - jmcmurry@mwt.net Adaptat per a la plantilla per  Wim van der Kuil - Leuven-Template.eu

Trobareu la nostra informacio del temps tambe a:

Weather Underground

AWEKAS